Detall de PIREP

Printer-friendly versionPDF version

[2014/09/09 15:35:00]
Flight IATA:CT2105
Pilot Number:012
Company ICAO:CAT
Aircraft Type:F28/A
PAX:85
Departing Airport: LEBB
Destination Airport: LEVC
Alternate Airport:LEPA
Online: VATSIM
Route:PPN UM601 MARIO POSSY UN862 MLA UN860 SAURA
Flight Level:F270
No Slew and time accel
No pause
Crash detect
Detect pilot in Cockpit between each 30 and 45 minutes
15:35 Zero fuel Weight: 58514 Lbs, Fuel Weight: 10485 Lbs
15:35 VATSIM:LEBB 091500Z 29009KT 260V330 9999 FEW030 29/20 Q1014 NOSIG
15:35 VATSIM:LEVC 091500Z 10010KT 9999 SCT030 29/21 Q1014 NOSIG
15:36 Parking Brakes off
15:42 Take-off
15:42 Take off Weight: 68594 Lbs
15:42 Wind: 291º @ 008 Knots Heading: 296º
15:42 POS N43º 18´ 17´´ W002º 55´ 15´´
15:42 Gear Up: 166 Knots
15:57 Wind:342º@009 Knots Heading: 143º Ground Speed: 327 Knots Altitude 25757 ft
15:58 TOC
15:58 Fuel Weight: 8167 Lb
16:12 Wind:297º@022 Knots Heading: 178º Ground Speed: 446 Knots Altitude 27086 ft
16:24 TOD
16:24 Fuel Weight: 6110 Lb
16:27 Wind:322º@023 Knots Heading: 197º Ground Speed: 426 Knots Altitude 23779 ft
16:37 Flaps:1 at 215 Knots
16:37 Flaps:2 at 208 Knots
16:37 Gear Down: 201 Knots
16:38 Flaps:3 at 189 Knots
16:38 Flaps:4 at 176 Knots
16:38 Flaps:5 at 160 Knots
16:41 TouchDown:Rate -281 ft/min Speed: 128 Knots
16:41 VATSIM:LEVC 091630Z 08008KT 050V110 9999 SCT025 28/22 Q1014 TEMPO FEW025CB
16:41 Land
16:41 Wind:042º@009 Knots
16:41 Heading: 117º
16:41 Flight Duration: 00:59
16:41 Landing Weight: 64101 Lbs
16:41 POS N39º 29´ 30´´ W000º 29´ 17´´
16:43 Parking brakes on
16:43 Block to Block Duration: 01:07
16:43 Final Fuel: 5522 Lbls
16:43 Spent Fuel: 4962 Lbls
16:43 Flight Length: 360 NM
16:43 TOD Land Length: 85 NM

Exportar CSV

Powered by Drupal - Modified by Danger4k